createdAt,value
2022-08-17T00:01:51.532Z,56.99
2022-08-17T00:04:20.299Z,57.11
2022-08-17T00:06:49.250Z,56.55
2022-08-17T00:09:18.932Z,55.93
2022-08-17T00:12:34.957Z,55.97
2022-08-17T00:14:36.999Z,56.35
2022-08-17T00:17:07.038Z,56.55
2022-08-17T00:19:34.011Z,56.50
2022-08-17T00:22:32.410Z,56.46
2022-08-17T00:24:50.138Z,56.89
2022-08-17T00:27:17.896Z,57.24
2022-08-17T00:29:45.858Z,57.25
2022-08-17T00:33:11.612Z,56.97
2022-08-17T00:35:06.805Z,57.60
2022-08-17T00:37:33.775Z,58.66
2022-08-17T00:40:00.600Z,59.00
2022-08-17T00:42:30.946Z,59.53
2022-08-17T00:44:58.703Z,60.00
2022-08-17T00:47:26.039Z,60.55
2022-08-17T00:49:53.104Z,60.59
2022-08-17T00:52:28.543Z,63.13
2022-08-17T00:54:56.554Z,62.75
2022-08-17T00:57:44.160Z,62.43
2022-08-17T01:00:27.447Z,62.08
2022-08-17T01:03:03.102Z,62.22
2022-08-17T01:05:33.354Z,62.01
2022-08-17T01:08:02.520Z,61.85
2022-08-17T01:10:59.917Z,61.54
2022-08-17T01:13:39.808Z,61.76
2022-08-17T01:16:18.864Z,61.94
2022-08-17T01:18:50.494Z,61.94
2022-08-17T01:21:49.157Z,61.15
2022-08-17T01:24:17.693Z,61.39
2022-08-17T01:26:45.972Z,61.65
2022-08-17T01:29:13.669Z,62.49
2022-08-17T01:31:52.200Z,62.88
2022-08-17T01:34:21.035Z,62.91
2022-08-17T01:36:50.319Z,62.79
2022-08-17T01:39:37.712Z,62.16
2022-08-17T01:42:30.950Z,62.51
2022-08-17T01:45:05.505Z,62.69
2022-08-17T01:47:32.885Z,62.79
2022-08-17T01:50:10.533Z,62.19
2022-08-17T01:52:37.637Z,61.99
2022-08-17T01:55:07.018Z,61.86
2022-08-17T01:57:34.390Z,62.06
2022-08-17T02:00:01.299Z,61.39
2022-08-17T02:02:30.339Z,61.46
2022-08-17T02:04:58.808Z,61.46
2022-08-17T02:07:27.069Z,61.85
2022-08-17T02:09:54.492Z,61.48
2022-08-17T02:15:09.493Z,62.13
2022-08-17T02:17:36.406Z,61.78
2022-08-17T02:20:05.174Z,61.73
2022-08-17T02:22:31.970Z,62.33
2022-08-17T02:25:02.307Z,62.71
2022-08-17T02:27:29.918Z,61.88
2022-08-17T02:29:57.501Z,62.20
2022-08-17T02:32:28.123Z,62.15
2022-08-17T02:34:58.135Z,62.36
2022-08-17T02:37:27.871Z,62.90
2022-08-17T02:39:57.064Z,63.12
2022-08-17T02:42:38.183Z,63.05
2022-08-17T02:45:11.304Z,62.89
2022-08-17T02:47:38.945Z,62.81
2022-08-17T02:50:07.723Z,62.10
2022-08-17T02:52:43.441Z,62.25
2022-08-17T02:55:34.453Z,62.21
2022-08-17T02:58:03.483Z,62.61
2022-08-17T03:00:40.965Z,62.92
2022-08-17T03:03:10.812Z,62.36
2022-08-17T03:05:39.464Z,62.32
2022-08-17T03:08:07.807Z,62.23
2022-08-17T03:10:40.010Z,62.58
2022-08-17T03:13:06.883Z,62.62
2022-08-17T03:15:34.976Z,62.91
2022-08-17T03:18:03.502Z,63.31
2022-08-17T03:20:33.195Z,63.63
2022-08-17T03:23:02.826Z,62.83
2022-08-17T03:25:35.394Z,62.12
2022-08-17T03:28:04.282Z,62.26
2022-08-17T03:30:31.749Z,62.60
2022-08-17T03:33:01.681Z,62.23
2022-08-17T03:35:32.412Z,62.66
2022-08-17T03:38:01.302Z,62.43
2022-08-17T03:40:55.058Z,62.18
2022-08-17T03:43:19.028Z,63.20
2022-08-17T03:46:04.382Z,63.25
2022-08-17T03:48:51.284Z,62.92
2022-08-17T03:51:41.753Z,62.83
2022-08-17T03:54:29.170Z,63.09
2022-08-17T03:57:09.475Z,63.38
2022-08-17T03:59:37.714Z,63.44
2022-08-17T04:02:21.354Z,62.78
2022-08-17T04:04:52.335Z,62.81
2022-08-17T04:07:22.666Z,62.91
2022-08-17T04:09:49.826Z,63.08
2022-08-17T04:12:23.257Z,62.88
2022-08-17T04:14:52.640Z,62.46
2022-08-17T04:17:27.685Z,62.27
2022-08-17T04:19:56.242Z,62.44
2022-08-17T04:22:30.441Z,62.00
2022-08-17T04:25:15.936Z,62.58
2022-08-17T04:27:42.713Z,62.67
2022-08-17T04:30:10.511Z,62.33
2022-08-17T04:33:08.545Z,62.68
2022-08-17T04:35:47.951Z,63.21
2022-08-17T04:38:26.207Z,63.10
2022-08-17T04:41:12.117Z,63.07
2022-08-17T04:43:41.425Z,62.93
2022-08-17T04:46:19.361Z,62.82
2022-08-17T04:48:53.315Z,62.69
2022-08-17T04:51:56.240Z,63.02
2022-08-17T04:54:27.581Z,62.35
2022-08-17T04:56:54.350Z,62.48
2022-08-17T04:59:22.523Z,62.81
2022-08-17T05:01:51.942Z,62.15
2022-08-17T05:04:34.559Z,61.91
2022-08-17T05:07:03.124Z,61.87
2022-08-17T05:09:29.914Z,62.07
2022-08-17T05:12:02.271Z,61.91
2022-08-17T05:14:32.930Z,62.03
2022-08-17T05:17:01.284Z,62.07
2022-08-17T05:19:28.991Z,62.10
2022-08-17T05:21:55.805Z,62.09
2022-08-17T05:24:38.386Z,61.66
2022-08-17T05:27:06.540Z,61.33
2022-08-17T05:29:35.591Z,60.86
2022-08-17T05:32:37.897Z,60.75
2022-08-17T05:35:01.171Z,60.11
2022-08-17T05:37:28.333Z,59.32
2022-08-17T05:39:55.298Z,58.94
2022-08-17T05:42:22.575Z,58.30
2022-08-17T05:44:49.419Z,57.55
2022-08-17T05:47:18.230Z,57.19
2022-08-17T05:49:45.301Z,56.55
2022-08-17T05:52:34.738Z,56.51
2022-08-17T05:55:45.319Z,56.03
2022-08-17T05:58:27.219Z,55.41
2022-08-17T06:01:44.114Z,54.78
2022-08-17T06:05:10.696Z,53.80
2022-08-17T06:07:57.322Z,53.58
2022-08-17T06:11:03.367Z,53.10
2022-08-17T06:13:45.005Z,53.10
2022-08-17T06:16:33.794Z,52.84
2022-08-17T06:19:20.070Z,52.76
2022-08-17T06:21:52.678Z,52.41
2022-08-17T06:24:34.310Z,52.57
2022-08-17T06:27:25.159Z,51.95
2022-08-17T06:30:11.469Z,52.32
2022-08-17T06:32:43.605Z,52.02
2022-08-17T06:35:30.042Z,51.83
2022-08-17T06:38:37.630Z,51.49
2022-08-17T06:41:28.882Z,51.09
2022-08-17T06:44:43.615Z,50.87
2022-08-17T06:47:48.921Z,50.72
2022-08-17T06:50:35.881Z,50.14
2022-08-17T06:53:24.441Z,50.21
2022-08-17T06:56:09.481Z,50.20
2022-08-17T06:58:40.423Z,50.04
2022-08-17T07:01:19.716Z,49.84
2022-08-17T07:03:57.490Z,49.65
2022-08-17T07:06:40.557Z,49.44
2022-08-17T07:09:23.475Z,49.24
2022-08-17T07:12:15.850Z,48.74
2022-08-17T07:15:10.987Z,48.40
2022-08-17T07:17:47.528Z,48.42
2022-08-17T07:20:23.288Z,48.74
2022-08-17T07:23:03.582Z,48.42
2022-08-17T07:25:31.960Z,48.38
2022-08-17T07:28:07.125Z,47.78
2022-08-17T07:30:46.954Z,47.77
2022-08-17T07:33:22.575Z,47.38
2022-08-17T07:35:50.231Z,47.14
2022-08-17T07:38:28.641Z,47.23
2022-08-17T07:41:01.882Z,46.55
2022-08-17T07:43:40.964Z,46.22
2022-08-17T07:46:42.656Z,45.65
2022-08-17T07:49:09.367Z,45.51
2022-08-17T07:51:59.962Z,44.79
2022-08-17T07:54:42.761Z,44.79
2022-08-17T07:57:15.180Z,44.67
2022-08-17T08:00:06.264Z,44.58
2022-08-17T08:02:45.395Z,44.77
2022-08-17T08:05:44.284Z,44.90
2022-08-17T08:08:32.712Z,45.51
2022-08-17T08:11:15.380Z,46.11
2022-08-17T08:13:45.654Z,46.41
2022-08-17T08:16:29.295Z,46.93
2022-08-17T08:19:02.012Z,47.01
2022-08-17T08:21:35.436Z,47.51
2022-08-17T08:24:42.388Z,47.32
2022-08-17T08:27:29.085Z,47.31
2022-08-17T08:30:12.826Z,46.51
2022-08-17T08:33:07.527Z,46.11
2022-08-17T08:35:52.943Z,45.18
2022-08-17T08:39:00.766Z,45.40
2022-08-17T08:41:45.683Z,46.23
2022-08-17T08:45:00.782Z,46.25
2022-08-17T08:48:22.705Z,45.23
2022-08-17T08:51:21.428Z,44.47
2022-08-17T08:54:26.693Z,43.45
2022-08-17T08:57:32.697Z,43.53
2022-08-17T09:00:23.723Z,44.46
2022-08-17T09:03:08.988Z,45.69
2022-08-17T09:06:32.475Z,46.73
2022-08-17T09:09:21.531Z,47.77
2022-08-17T09:12:25.288Z,47.86
2022-08-17T09:15:03.322Z,48.36
2022-08-17T09:18:36.416Z,48.90
2022-08-17T09:21:03.462Z,49.12
2022-08-17T09:23:49.434Z,49.40
2022-08-17T09:26:51.294Z,49.73
2022-08-17T09:29:18.418Z,49.75
2022-08-17T09:31:58.606Z,49.62
2022-08-17T09:34:49.692Z,49.56
2022-08-17T09:38:02.259Z,49.94
2022-08-17T09:40:47.479Z,50.52
2022-08-17T09:43:43.817Z,50.93
2022-08-17T09:46:31.818Z,50.43
2022-08-17T09:49:37.530Z,50.57
2022-08-17T09:52:28.410Z,50.75
2022-08-17T09:54:59.255Z,50.76
2022-08-17T09:57:43.157Z,50.96
2022-08-17T10:00:27.327Z,51.00
2022-08-17T10:03:42.993Z,50.87
2022-08-17T10:06:23.086Z,50.61
2022-08-17T10:09:06.434Z,51.37
2022-08-17T10:12:03.158Z,51.10
2022-08-17T10:14:43.778Z,50.80
2022-08-17T10:17:35.555Z,50.51
2022-08-17T10:20:36.838Z,50.30
2022-08-17T10:24:10.690Z,50.57
2022-08-17T10:26:56.590Z,50.42
2022-08-17T10:29:49.864Z,50.69
2022-08-17T10:32:59.120Z,50.81
2022-08-17T10:36:06.308Z,50.77
2022-08-17T10:38:46.892Z,51.10
2022-08-17T10:41:27.191Z,51.11
2022-08-17T10:44:40.129Z,50.96
2022-08-17T10:47:03.768Z,50.49
2022-08-17T10:49:38.982Z,50.50
2022-08-17T10:52:21.919Z,51.08
2022-08-17T10:54:58.233Z,51.08
2022-08-17T10:57:34.315Z,51.22
2022-08-17T11:00:17.455Z,51.58
2022-08-17T11:02:58.338Z,51.83
2022-08-17T11:06:04.046Z,51.99
2022-08-17T11:09:22.463Z,52.67
2022-08-17T11:11:58.587Z,52.36
2022-08-17T11:14:39.840Z,52.32
2022-08-17T11:17:21.276Z,52.18
2022-08-17T11:20:23.369Z,51.95
2022-08-17T11:23:07.389Z,51.46
2022-08-17T11:25:47.158Z,50.87
2022-08-17T11:28:34.521Z,50.18
2022-08-17T11:31:39.274Z,50.64
2022-08-17T11:34:31.268Z,50.65
2022-08-17T11:37:36.203Z,50.55
2022-08-17T11:40:49.471Z,50.44
2022-08-17T11:44:15.302Z,49.81
2022-08-17T11:47:22.792Z,49.70
2022-08-17T11:50:38.850Z,49.94
2022-08-17T11:53:06.442Z,50.02
2022-08-17T11:55:59.082Z,50.49
2022-08-17T11:58:37.315Z,50.84
2022-08-17T12:01:57.058Z,50.66
2022-08-17T12:04:26.125Z,50.01
2022-08-17T12:07:05.183Z,49.83
2022-08-17T12:09:34.438Z,50.42
2022-08-17T12:12:14.205Z,50.18
2022-08-17T12:15:12.891Z,50.73
2022-08-17T12:17:42.695Z,50.52
2022-08-17T12:20:38.468Z,49.94
2022-08-17T12:23:33.764Z,50.29
2022-08-17T12:26:21.016Z,49.99
2022-08-17T12:28:57.420Z,50.10
2022-08-17T12:31:43.135Z,50.18
2022-08-17T12:34:22.795Z,50.15
2022-08-17T12:36:54.310Z,50.20
2022-08-17T12:39:25.048Z,50.01
2022-08-17T12:42:02.391Z,50.01
2022-08-17T12:44:37.049Z,49.54
2022-08-17T12:47:22.178Z,48.57
2022-08-17T12:49:55.112Z,49.22
2022-08-17T12:52:32.741Z,49.14
2022-08-17T12:55:08.165Z,48.69
2022-08-17T12:57:46.106Z,49.40
2022-08-17T13:00:35.483Z,49.75
2022-08-17T13:03:09.418Z,49.18
2022-08-17T13:05:54.918Z,49.27
2022-08-17T13:08:39.314Z,49.08
2022-08-17T13:11:13.719Z,49.07
2022-08-17T13:13:50.673Z,48.66
2022-08-17T13:16:31.866Z,48.68
2022-08-17T13:19:18.750Z,49.22
2022-08-17T13:22:12.633Z,49.71
2022-08-17T13:24:55.554Z,49.69
2022-08-17T13:27:26.477Z,49.87
2022-08-17T13:30:02.182Z,49.80
2022-08-17T13:32:45.680Z,49.98
2022-08-17T13:35:41.048Z,50.08
2022-08-17T13:38:16.870Z,49.86
2022-08-17T13:40:51.807Z,49.96
2022-08-17T13:43:45.423Z,49.92
2022-08-17T13:46:28.390Z,50.08
2022-08-17T13:49:06.711Z,50.38
2022-08-17T13:51:42.147Z,50.30
2022-08-17T13:54:36.686Z,50.19
2022-08-17T13:57:12.434Z,50.31
2022-08-17T13:59:55.293Z,50.47
2022-08-17T14:02:25.834Z,50.42
2022-08-17T14:04:58.373Z,50.68
2022-08-17T14:07:34.669Z,50.44
2022-08-17T14:10:10.126Z,50.65
2022-08-17T14:12:40.808Z,50.53
2022-08-17T14:15:11.258Z,50.62
2022-08-17T14:17:39.280Z,50.81
2022-08-17T14:20:10.685Z,50.69
2022-08-17T14:22:45.942Z,50.79
2022-08-17T14:25:17.673Z,50.65
2022-08-17T14:27:52.709Z,50.62
2022-08-17T14:30:23.806Z,50.78
2022-08-17T14:32:51.843Z,50.62
2022-08-17T14:35:22.325Z,50.67
2022-08-17T14:37:51.104Z,50.78
2022-08-17T14:40:24.275Z,50.64
2022-08-17T14:42:53.872Z,50.82
2022-08-17T14:45:29.862Z,50.83
2022-08-17T14:48:04.348Z,50.72
2022-08-17T14:50:32.026Z,50.76
2022-08-17T14:53:03.779Z,50.60
2022-08-17T14:55:31.097Z,50.80
2022-08-17T14:57:58.250Z,50.56
2022-08-17T15:00:26.689Z,50.53
2022-08-17T15:02:58.314Z,50.17
2022-08-17T15:05:31.429Z,49.86
2022-08-17T15:08:03.262Z,50.08
2022-08-17T15:10:31.735Z,49.88
2022-08-17T15:12:59.275Z,50.03
2022-08-17T15:15:26.594Z,50.40
2022-08-17T15:17:53.622Z,50.25
2022-08-17T15:20:27.491Z,50.08
2022-08-17T15:22:56.080Z,50.44
2022-08-17T15:25:29.049Z,50.16
2022-08-17T15:27:56.301Z,49.99
2022-08-17T15:30:25.573Z,50.25
2022-08-17T15:32:55.102Z,50.31
2022-08-17T15:35:28.989Z,50.63
2022-08-17T15:38:11.833Z,50.52
2022-08-17T15:40:48.317Z,50.45
2022-08-17T15:43:22.000Z,50.17
2022-08-17T15:46:04.991Z,50.61
2022-08-17T15:48:41.294Z,50.68
2022-08-17T15:51:33.360Z,50.45
2022-08-17T15:54:18.703Z,50.22
2022-08-17T15:56:46.501Z,50.38
2022-08-17T15:59:13.348Z,50.41
2022-08-17T16:03:14.820Z,50.47
2022-08-17T16:04:31.046Z,50.55
2022-08-17T16:06:59.929Z,50.49
2022-08-17T16:09:27.912Z,50.47
2022-08-17T16:11:55.584Z,50.28
2022-08-17T16:14:24.495Z,50.22
2022-08-17T16:16:59.034Z,50.42
2022-08-17T16:19:25.808Z,50.30
2022-08-17T16:21:52.603Z,50.53
2022-08-17T16:24:19.472Z,50.36
2022-08-17T16:26:46.339Z,50.30
2022-08-17T16:29:13.356Z,50.36
2022-08-17T16:31:41.338Z,50.69
2022-08-17T16:34:18.071Z,50.22
2022-08-17T16:36:55.490Z,50.37
2022-08-17T16:39:29.598Z,50.51
2022-08-17T16:41:57.425Z,50.42
2022-08-17T16:44:28.858Z,50.42
2022-08-17T16:46:57.322Z,49.61
2022-08-17T16:49:37.481Z,49.60
2022-08-17T16:52:10.625Z,49.24
2022-08-17T16:54:44.257Z,48.84
2022-08-17T16:57:13.654Z,49.02
2022-08-17T16:59:45.179Z,48.39
2022-08-17T17:02:23.375Z,47.77
2022-08-17T17:05:51.523Z,47.49
2022-08-17T17:08:48.376Z,47.17
2022-08-17T17:11:33.602Z,47.71
2022-08-17T17:14:10.819Z,47.51
2022-08-17T17:17:14.695Z,47.58
2022-08-17T17:20:11.564Z,47.74
2022-08-17T17:23:17.339Z,47.90
2022-08-17T17:26:02.392Z,48.21
2022-08-17T17:28:39.010Z,48.06
2022-08-17T17:31:20.987Z,47.99
2022-08-17T17:34:00.435Z,48.29
2022-08-17T17:36:49.875Z,48.23
2022-08-17T17:39:32.181Z,48.38
2022-08-17T17:42:07.416Z,48.63
2022-08-17T17:44:44.470Z,48.67
2022-08-17T17:47:13.231Z,48.81
2022-08-17T17:49:44.495Z,48.93
2022-08-17T17:52:14.527Z,49.14
2022-08-17T17:55:35.302Z,49.14
2022-08-17T17:58:34.904Z,49.41
2022-08-17T18:01:30.689Z,49.77
2022-08-17T18:04:28.431Z,49.78
2022-08-17T18:07:04.339Z,49.77
2022-08-17T18:10:49.126Z,50.18
2022-08-17T18:13:50.510Z,50.96
2022-08-17T18:16:19.126Z,51.09
2022-08-17T18:18:52.344Z,51.02
2022-08-17T18:21:32.984Z,51.41
2022-08-17T18:24:04.946Z,51.77
2022-08-17T18:26:44.954Z,51.60
2022-08-17T18:29:27.522Z,51.95
2022-08-17T18:32:38.589Z,52.10
2022-08-17T18:35:10.779Z,52.03
2022-08-17T18:37:50.201Z,52.34
2022-08-17T18:40:17.170Z,52.30
2022-08-17T18:43:00.451Z,51.68
2022-08-17T18:45:49.124Z,52.47
2022-08-17T18:48:38.145Z,51.73
2022-08-17T18:51:40.946Z,52.42
2022-08-17T18:54:22.900Z,52.53
2022-08-17T18:56:55.199Z,53.03
2022-08-17T18:59:42.237Z,52.63
2022-08-17T19:05:26.225Z,52.82
2022-08-17T19:07:53.444Z,53.00
2022-08-17T19:10:46.184Z,52.60
2022-08-17T19:13:25.511Z,52.61
2022-08-17T19:16:31.892Z,52.92
2022-08-17T19:19:17.726Z,53.27
2022-08-17T19:22:00.775Z,52.86
2022-08-17T19:24:31.547Z,53.63
2022-08-17T19:27:25.463Z,53.84
2022-08-17T19:30:10.726Z,53.78
2022-08-17T19:32:38.136Z,54.22
2022-08-17T19:35:12.394Z,53.55
2022-08-17T19:38:12.938Z,53.49
2022-08-17T19:40:58.505Z,53.88
2022-08-17T19:43:52.835Z,54.13
2022-08-17T19:46:50.094Z,53.59
2022-08-17T19:49:46.586Z,53.60
2022-08-17T19:53:09.624Z,53.25
2022-08-17T19:56:13.579Z,52.94
2022-08-17T19:59:16.154Z,53.24
2022-08-17T20:01:51.566Z,53.00
2022-08-17T20:04:32.265Z,53.02
2022-08-17T20:07:13.347Z,52.57
2022-08-17T20:09:51.571Z,52.46
2022-08-17T20:12:25.702Z,52.27
2022-08-17T20:15:35.135Z,52.60
2022-08-17T20:18:12.302Z,53.00
2022-08-17T20:21:19.946Z,52.44
2022-08-17T20:24:18.349Z,52.66
2022-08-17T20:26:59.470Z,52.21
2022-08-17T20:29:39.836Z,52.63
2022-08-17T20:32:25.050Z,53.90
2022-08-17T20:35:08.358Z,53.77
2022-08-17T20:37:43.041Z,54.09
2022-08-17T20:40:09.796Z,53.76
2022-08-17T20:42:37.451Z,54.52
2022-08-17T20:45:25.990Z,54.67
2022-08-17T20:48:27.245Z,54.82
2022-08-17T20:50:55.947Z,54.83
2022-08-17T20:53:54.862Z,54.04
2022-08-17T20:56:43.301Z,54.43
2022-08-17T20:59:31.576Z,54.71
2022-08-17T21:02:17.723Z,54.38
2022-08-17T21:04:54.307Z,54.41
2022-08-17T21:07:29.092Z,54.24
2022-08-17T21:10:25.399Z,53.67
2022-08-17T21:14:01.724Z,53.75
2022-08-17T21:17:01.236Z,53.30
2022-08-17T21:19:49.016Z,53.75
2022-08-17T21:22:42.082Z,53.65
2022-08-17T21:25:32.417Z,53.48
2022-08-17T21:28:14.681Z,53.77
2022-08-17T21:31:08.407Z,54.06
2022-08-17T21:33:40.237Z,54.40
2022-08-17T21:36:12.689Z,53.82
2022-08-17T21:38:48.717Z,53.97
2022-08-17T21:41:33.742Z,54.25
2022-08-17T21:44:18.239Z,54.59
2022-08-17T21:46:49.329Z,55.08
2022-08-17T21:49:24.863Z,55.43
2022-08-17T21:51:55.830Z,55.40
2022-08-17T21:54:38.586Z,55.10
2022-08-17T21:57:16.556Z,55.71
2022-08-17T21:59:44.555Z,55.35
2022-08-17T22:02:24.702Z,55.40
2022-08-17T22:05:02.487Z,55.96
2022-08-17T22:07:42.467Z,55.82
2022-08-17T22:10:27.371Z,56.06
2022-08-17T22:13:21.528Z,55.71
2022-08-17T22:16:15.640Z,55.92
2022-08-17T22:18:57.942Z,56.42
2022-08-17T22:21:25.464Z,56.28
2022-08-17T22:24:15.226Z,56.43
2022-08-17T22:27:10.852Z,57.18
2022-08-17T22:29:46.577Z,57.39
2022-08-17T22:32:37.430Z,57.21
2022-08-17T22:35:42.311Z,57.17
2022-08-17T22:38:21.030Z,57.34
2022-08-17T22:40:57.401Z,56.91
2022-08-17T22:43:28.551Z,58.99
2022-08-17T22:46:00.201Z,61.36
2022-08-17T22:48:31.087Z,62.03
2022-08-17T22:51:17.330Z,61.36
2022-08-17T22:54:12.809Z,61.80
2022-08-17T22:57:31.068Z,61.90
2022-08-17T23:00:00.508Z,62.59
2022-08-17T23:02:34.830Z,62.52
2022-08-17T23:05:12.721Z,63.42
2022-08-17T23:07:40.734Z,63.39
2022-08-17T23:10:12.657Z,63.55
2022-08-17T23:12:39.776Z,62.67
2022-08-17T23:15:16.043Z,64.10
2022-08-17T23:17:45.247Z,63.97
2022-08-17T23:20:15.890Z,65.44
2022-08-17T23:22:51.834Z,67.30
2022-08-17T23:25:29.100Z,68.50
2022-08-17T23:28:01.417Z,69.53
2022-08-17T23:30:31.588Z,69.43
2022-08-17T23:33:07.954Z,69.27
2022-08-17T23:35:39.000Z,68.71
2022-08-17T23:38:07.434Z,67.66
2022-08-17T23:40:34.443Z,67.24
2022-08-17T23:43:01.294Z,67.01
2022-08-17T23:45:32.788Z,66.43
2022-08-17T23:48:00.234Z,66.30
2022-08-17T23:50:30.037Z,66.17
2022-08-17T23:52:58.002Z,66.19
2022-08-17T23:55:24.817Z,66.70
2022-08-17T23:57:51.791Z,66.60
